createdAt,value
2023-06-19T00:01:10.821Z,7.55
2023-06-19T00:03:38.098Z,8.13
2023-06-19T00:06:05.364Z,7.35
2023-06-19T00:08:32.490Z,5.20
2023-06-19T00:10:59.688Z,6.97
2023-06-19T00:13:27.015Z,5.30
2023-06-19T00:15:54.324Z,7.30
2023-06-19T00:18:21.472Z,6.45
2023-06-19T00:20:48.794Z,7.18
2023-06-19T00:23:18.041Z,5.43
2023-06-19T00:25:45.981Z,5.18
2023-06-19T00:28:15.079Z,7.47
2023-06-19T00:30:43.000Z,6.95
2023-06-19T00:33:10.565Z,5.80
2023-06-19T00:35:37.926Z,6.25
2023-06-19T00:38:07.273Z,6.07
2023-06-19T00:40:35.383Z,4.35
2023-06-19T00:43:03.059Z,7.28
2023-06-19T00:45:30.429Z,5.18
2023-06-19T00:47:58.571Z,5.00
2023-06-19T00:50:26.368Z,4.93
2023-06-19T00:52:53.960Z,6.78
2023-06-19T00:55:21.341Z,4.13
2023-06-19T00:57:48.722Z,5.43
2023-06-19T01:00:15.997Z,5.63
2023-06-19T01:02:43.226Z,4.97
2023-06-19T01:05:10.559Z,4.85
2023-06-19T01:07:45.139Z,4.80
2023-06-19T01:10:17.030Z,5.05
2023-06-19T01:12:51.713Z,5.00
2023-06-19T01:15:19.332Z,4.45
2023-06-19T01:17:48.469Z,4.10
2023-06-19T01:20:16.016Z,3.95
2023-06-19T01:22:46.548Z,4.05
2023-06-19T01:25:14.990Z,3.63
2023-06-19T01:27:43.443Z,4.07
2023-06-19T01:30:11.752Z,4.00
2023-06-19T01:32:57.597Z,4.82
2023-06-19T01:35:26.502Z,5.45
2023-06-19T01:37:54.317Z,4.28
2023-06-19T01:40:27.316Z,4.43
2023-06-19T01:42:55.522Z,4.32
2023-06-19T01:45:22.994Z,4.30
2023-06-19T01:47:50.339Z,3.80
2023-06-19T01:50:17.693Z,4.47
2023-06-19T01:52:46.966Z,4.55
2023-06-19T01:55:14.892Z,4.13
2023-06-19T01:57:42.354Z,4.68
2023-06-19T02:00:11.237Z,5.05
2023-06-19T02:02:39.147Z,4.82
2023-06-19T02:05:06.544Z,4.72
2023-06-19T02:07:33.765Z,4.43
2023-06-19T02:10:01.023Z,3.85
2023-06-19T02:12:28.344Z,4.50
2023-06-19T02:14:55.520Z,4.38
2023-06-19T02:17:22.707Z,4.93
2023-06-19T02:19:50.039Z,4.13
2023-06-19T02:22:17.204Z,4.43
2023-06-19T02:24:45.707Z,4.47
2023-06-19T02:27:13.014Z,4.65
2023-06-19T02:29:40.219Z,3.70
2023-06-19T02:32:07.512Z,6.07
2023-06-19T02:34:34.942Z,4.30
2023-06-19T02:37:02.121Z,5.88
2023-06-19T02:39:29.335Z,4.35
2023-06-19T02:41:56.553Z,7.65
2023-06-19T02:44:23.704Z,5.28
2023-06-19T02:46:50.922Z,4.30
2023-06-19T02:49:18.156Z,6.43
2023-06-19T02:51:45.351Z,4.50
2023-06-19T02:54:12.736Z,5.05
2023-06-19T02:56:40.053Z,4.53
2023-06-19T02:59:07.709Z,3.90
2023-06-19T03:01:35.267Z,4.32
2023-06-19T03:04:02.470Z,5.93
2023-06-19T03:06:29.960Z,4.05
2023-06-19T03:08:57.552Z,6.75
2023-06-19T03:11:24.762Z,6.13
2023-06-19T03:13:52.982Z,4.00
2023-06-19T03:16:20.462Z,4.38
2023-06-19T03:18:49.302Z,6.03
2023-06-19T03:21:20.790Z,6.10
2023-06-19T03:23:48.357Z,4.85
2023-06-19T03:26:15.527Z,5.25
2023-06-19T03:28:42.749Z,4.50
2023-06-19T03:31:10.001Z,4.45
2023-06-19T03:33:37.170Z,5.05
2023-06-19T03:36:04.661Z,6.25
2023-06-19T03:38:31.977Z,8.52
2023-06-19T03:40:59.213Z,10.23
2023-06-19T03:43:26.375Z,5.80
2023-06-19T03:45:53.582Z,6.07
2023-06-19T03:48:20.739Z,5.63
2023-06-19T03:50:48.085Z,4.68
2023-06-19T03:53:15.349Z,4.68
2023-06-19T03:55:42.550Z,4.07
2023-06-19T03:58:09.737Z,5.25
2023-06-19T04:00:36.935Z,5.57
2023-06-19T04:03:04.195Z,4.38
2023-06-19T04:05:31.430Z,5.82
2023-06-19T04:07:58.728Z,4.45
2023-06-19T04:10:26.227Z,5.10
2023-06-19T04:12:56.553Z,5.38
2023-06-19T04:15:24.332Z,6.15
2023-06-19T04:17:51.539Z,4.78
2023-06-19T04:20:18.783Z,7.85
2023-06-19T04:22:45.969Z,4.93
2023-06-19T04:25:13.335Z,6.82
2023-06-19T04:27:40.998Z,6.82
2023-06-19T04:30:08.544Z,7.18
2023-06-19T04:32:36.549Z,5.75
2023-06-19T04:35:04.398Z,4.60
2023-06-19T04:37:31.611Z,4.55
2023-06-19T04:39:58.832Z,4.85
2023-06-19T04:42:27.695Z,4.20
2023-06-19T04:44:56.487Z,6.95
2023-06-19T04:47:30.570Z,10.55
2023-06-19T04:50:03.952Z,4.65
2023-06-19T04:52:40.343Z,5.53
2023-06-19T04:55:10.446Z,3.78
2023-06-19T04:57:38.124Z,5.22
2023-06-19T05:00:11.395Z,3.53
2023-06-19T05:02:38.819Z,4.65
2023-06-19T05:05:06.577Z,4.95
2023-06-19T05:07:34.234Z,4.88
2023-06-19T05:10:01.422Z,6.20
2023-06-19T05:12:28.618Z,4.80
2023-06-19T05:14:55.777Z,6.68
2023-06-19T05:17:23.121Z,5.22
2023-06-19T05:19:50.708Z,6.43
2023-06-19T05:22:19.681Z,6.78
2023-06-19T05:24:46.901Z,7.25
2023-06-19T05:27:14.202Z,5.50
2023-06-19T05:29:41.440Z,6.63
2023-06-19T05:32:08.836Z,6.22
2023-06-19T05:34:36.102Z,6.43
2023-06-19T05:37:04.793Z,7.50
2023-06-19T05:41:59.259Z,8.40
2023-06-19T05:44:26.709Z,6.82
2023-06-19T05:46:54.053Z,7.82
2023-06-19T05:49:21.238Z,10.65
2023-06-19T05:51:49.028Z,12.70
2023-06-19T05:54:16.369Z,8.55
2023-06-19T05:56:43.626Z,9.02
2023-06-19T05:59:10.964Z,10.63
2023-06-19T06:01:38.179Z,8.50
2023-06-19T06:04:06.175Z,9.73
2023-06-19T06:06:33.396Z,13.18
2023-06-19T06:09:00.553Z,11.10
2023-06-19T06:11:27.741Z,9.85
2023-06-19T06:13:54.940Z,7.20
2023-06-19T06:16:22.162Z,10.40
2023-06-19T06:18:49.316Z,8.75
2023-06-19T06:21:16.517Z,8.25
2023-06-19T06:23:45.876Z,6.70
2023-06-19T06:26:13.201Z,6.93
2023-06-19T06:28:40.650Z,9.55
2023-06-19T06:31:08.315Z,6.97
2023-06-19T06:33:35.607Z,12.07
2023-06-19T06:36:07.185Z,9.35
2023-06-19T06:38:35.945Z,11.45
2023-06-19T06:41:03.179Z,7.40
2023-06-19T06:43:30.394Z,12.57
2023-06-19T06:45:57.789Z,9.63
2023-06-19T06:48:25.294Z,11.07
2023-06-19T06:51:00.130Z,10.63
2023-06-19T06:55:57.474Z,10.80
2023-06-19T06:58:24.688Z,12.90
2023-06-19T07:00:52.343Z,12.25
2023-06-19T07:03:19.883Z,12.75
2023-06-19T07:05:47.311Z,15.20
2023-06-19T07:08:14.476Z,11.70
2023-06-19T07:10:41.633Z,12.35
2023-06-19T07:13:09.112Z,7.60
2023-06-19T07:15:36.331Z,13.25
2023-06-19T07:18:06.758Z,10.95
2023-06-19T07:20:34.095Z,10.27
2023-06-19T07:23:01.363Z,12.73
2023-06-19T07:25:28.574Z,9.85
2023-06-19T07:27:55.809Z,9.73
2023-06-19T07:30:23.387Z,11.55
2023-06-19T07:32:50.926Z,11.55
2023-06-19T07:35:18.149Z,16.95
2023-06-19T07:37:46.122Z,12.07
2023-06-19T07:40:13.568Z,12.00
2023-06-19T07:42:42.256Z,11.98
2023-06-19T07:45:11.785Z,12.15
2023-06-19T07:47:39.034Z,12.55
2023-06-19T07:50:06.562Z,11.20
2023-06-19T07:52:34.441Z,10.27
2023-06-19T07:55:01.876Z,11.00
2023-06-19T07:57:29.165Z,14.13
2023-06-19T07:59:56.731Z,9.77
2023-06-19T08:02:24.166Z,12.25
2023-06-19T08:04:51.489Z,13.10
2023-06-19T08:07:18.727Z,12.98
2023-06-19T08:09:48.300Z,12.07
2023-06-19T08:12:19.316Z,11.45
2023-06-19T08:14:46.512Z,11.85
2023-06-19T08:17:13.749Z,16.10
2023-06-19T08:19:41.100Z,13.93
2023-06-19T08:22:08.327Z,13.45
2023-06-19T08:24:37.460Z,12.68
2023-06-19T08:27:04.801Z,13.48
2023-06-19T08:29:31.968Z,14.13
2023-06-19T08:31:59.118Z,14.73
2023-06-19T08:34:26.341Z,17.65
2023-06-19T08:36:53.494Z,14.38
2023-06-19T08:39:23.290Z,13.90
2023-06-19T08:41:50.553Z,13.23
2023-06-19T08:44:17.864Z,13.77
2023-06-19T08:46:45.202Z,13.57
2023-06-19T08:49:12.528Z,12.38
2023-06-19T08:51:39.720Z,12.82
2023-06-19T08:54:08.354Z,11.93
2023-06-19T08:56:36.358Z,12.88
2023-06-19T08:59:13.499Z,15.63
2023-06-19T09:01:41.295Z,11.63
2023-06-19T09:04:14.898Z,11.65
2023-06-19T09:06:55.762Z,14.65
2023-06-19T09:09:26.884Z,13.35
2023-06-19T09:12:03.374Z,11.23
2023-06-19T09:14:40.664Z,13.52
2023-06-19T09:17:11.779Z,9.95
2023-06-19T09:19:41.138Z,12.82
2023-06-19T09:22:09.520Z,11.45
2023-06-19T09:24:37.942Z,12.40
2023-06-19T09:27:09.530Z,13.25
2023-06-19T09:29:40.144Z,12.30
2023-06-19T09:32:17.430Z,11.60
2023-06-19T09:34:44.726Z,12.38
2023-06-19T09:37:12.072Z,11.45
2023-06-19T09:39:39.647Z,10.48
2023-06-19T09:42:10.305Z,13.90
2023-06-19T09:44:46.833Z,15.00
2023-06-19T09:47:22.063Z,12.02
2023-06-19T09:50:00.115Z,13.70
2023-06-19T09:52:28.779Z,13.48
2023-06-19T09:57:23.782Z,10.32
2023-06-19T10:00:02.328Z,11.25
2023-06-19T10:02:30.123Z,11.18
2023-06-19T10:04:58.856Z,13.57
2023-06-19T10:10:13.814Z,12.65
2023-06-19T10:12:44.997Z,12.40
2023-06-19T10:15:19.672Z,10.38
2023-06-19T10:17:48.806Z,11.15
2023-06-19T10:20:25.551Z,12.10
2023-06-19T10:22:53.857Z,11.70
2023-06-19T10:25:25.261Z,11.65
2023-06-19T10:27:53.387Z,10.23
2023-06-19T10:30:21.465Z,11.00
2023-06-19T10:32:49.814Z,10.98
2023-06-19T10:35:18.439Z,9.82
2023-06-19T10:37:46.233Z,9.35
2023-06-19T10:40:13.946Z,11.90
2023-06-19T10:42:41.624Z,13.07
2023-06-19T10:45:19.301Z,12.55
2023-06-19T10:47:46.874Z,13.77
2023-06-19T10:50:14.974Z,14.90
2023-06-19T10:52:43.683Z,13.63
2023-06-19T10:57:38.539Z,13.55
2023-06-19T11:00:13.898Z,10.52
2023-06-19T11:02:44.994Z,14.57
2023-06-19T11:05:13.217Z,12.77
2023-06-19T11:07:40.498Z,10.93
2023-06-19T11:10:08.293Z,11.07
2023-06-19T11:12:35.784Z,10.13
2023-06-19T11:15:06.848Z,9.80
2023-06-19T11:17:34.406Z,10.20
2023-06-19T11:20:01.633Z,9.60
2023-06-19T11:22:39.324Z,11.43
2023-06-19T11:25:06.844Z,9.10
2023-06-19T11:27:34.054Z,10.25
2023-06-19T11:30:01.302Z,7.60
2023-06-19T11:32:32.852Z,12.27
2023-06-19T11:35:07.806Z,10.10
2023-06-19T11:37:35.964Z,9.93
2023-06-19T11:40:20.907Z,13.52
2023-06-19T11:42:48.164Z,9.95
2023-06-19T11:45:15.632Z,11.10
2023-06-19T11:47:44.574Z,14.20
2023-06-19T11:50:12.102Z,10.85
2023-06-19T11:52:39.318Z,11.40
2023-06-19T11:55:06.685Z,11.98
2023-06-19T11:57:36.729Z,12.27
2023-06-19T12:00:10.170Z,9.32
2023-06-19T12:02:37.566Z,9.85
2023-06-19T12:05:04.927Z,9.35
2023-06-19T12:07:32.183Z,8.38
2023-06-19T12:10:00.894Z,9.05
2023-06-19T12:12:29.340Z,12.38
2023-06-19T12:14:56.518Z,8.90
2023-06-19T12:17:23.907Z,13.80
2023-06-19T12:19:51.415Z,10.73
2023-06-19T12:22:18.586Z,9.73
2023-06-19T12:24:45.866Z,10.18
2023-06-19T12:27:13.236Z,10.77
2023-06-19T12:29:40.387Z,13.38
2023-06-19T12:32:07.872Z,9.38
2023-06-19T12:34:35.218Z,9.00
2023-06-19T12:37:02.540Z,9.65
2023-06-19T12:39:29.725Z,8.85
2023-06-19T12:41:56.977Z,8.82
2023-06-19T12:44:25.543Z,9.40
2023-06-19T12:46:53.935Z,13.23
2023-06-19T12:49:21.198Z,9.23
2023-06-19T12:51:52.316Z,12.15
2023-06-19T12:54:19.945Z,11.48
2023-06-19T12:56:47.396Z,11.93
2023-06-19T12:59:14.658Z,10.93
2023-06-19T13:01:42.588Z,10.63
2023-06-19T13:04:10.199Z,12.05
2023-06-19T13:06:38.012Z,8.32
2023-06-19T13:09:06.598Z,11.27
2023-06-19T13:14:02.804Z,11.65
2023-06-19T13:16:44.687Z,8.93
2023-06-19T13:19:13.864Z,9.50
2023-06-19T13:21:41.893Z,8.95
2023-06-19T13:24:09.224Z,11.57
2023-06-19T13:26:36.769Z,10.07
2023-06-19T13:29:04.250Z,10.25
2023-06-19T13:31:31.499Z,8.80
2023-06-19T13:33:59.693Z,11.70
2023-06-19T13:36:28.103Z,11.95
2023-06-19T13:38:55.480Z,10.30
2023-06-19T13:41:25.116Z,9.82
2023-06-19T13:43:54.990Z,10.40
2023-06-19T13:46:25.282Z,10.52
2023-06-19T13:48:53.147Z,10.43
2023-06-19T13:51:21.203Z,11.48
2023-06-19T13:53:48.702Z,10.20
2023-06-19T13:56:16.348Z,9.80
2023-06-19T13:58:43.558Z,10.82
2023-06-19T14:01:11.124Z,12.25
2023-06-19T14:03:39.467Z,8.38
2023-06-19T14:06:06.752Z,11.63
2023-06-19T14:08:34.295Z,10.55
2023-06-19T14:11:01.627Z,9.48
2023-06-19T14:13:28.889Z,9.80
2023-06-19T14:15:56.198Z,9.93
2023-06-19T14:18:26.915Z,10.98
2023-06-19T14:20:54.091Z,8.55
2023-06-19T14:23:21.348Z,9.68
2023-06-19T14:25:48.603Z,10.18
2023-06-19T14:28:16.558Z,9.35
2023-06-19T14:30:43.812Z,10.60
2023-06-19T14:33:16.085Z,9.40
2023-06-19T14:35:47.140Z,10.43
2023-06-19T14:38:17.576Z,11.25
2023-06-19T14:40:45.417Z,12.63
2023-06-19T14:43:12.867Z,8.77
2023-06-19T14:45:41.400Z,9.27
2023-06-19T14:48:09.270Z,9.10
2023-06-19T14:50:36.881Z,12.32
2023-06-19T14:53:04.305Z,10.50
2023-06-19T14:55:31.598Z,10.18
2023-06-19T14:57:58.836Z,9.20
2023-06-19T15:00:26.244Z,11.20
2023-06-19T15:02:53.623Z,7.82
2023-06-19T15:05:20.884Z,9.20
2023-06-19T15:07:48.068Z,9.88
2023-06-19T15:10:15.345Z,11.25
2023-06-19T15:12:42.594Z,8.15
2023-06-19T15:15:09.998Z,10.02
2023-06-19T15:17:37.318Z,7.15
2023-06-19T15:20:05.693Z,12.27
2023-06-19T15:22:33.051Z,7.03
2023-06-19T15:25:00.386Z,8.13
2023-06-19T15:27:27.600Z,7.43
2023-06-19T15:29:54.756Z,10.25
2023-06-19T15:32:22.199Z,7.35
2023-06-19T15:34:49.570Z,10.00
2023-06-19T15:37:16.894Z,8.45
2023-06-19T15:39:44.501Z,8.82
2023-06-19T15:42:12.301Z,7.72
2023-06-19T15:44:39.476Z,10.10
2023-06-19T15:47:07.304Z,7.80
2023-06-19T15:49:35.116Z,9.18
2023-06-19T15:52:02.383Z,11.27
2023-06-19T15:54:29.571Z,8.80
2023-06-19T15:56:59.404Z,8.48
2023-06-19T15:59:26.753Z,8.50
2023-06-19T16:01:54.147Z,12.70
2023-06-19T16:04:21.660Z,8.52
2023-06-19T16:06:48.818Z,8.43
2023-06-19T16:09:15.998Z,12.40
2023-06-19T16:11:43.159Z,8.88
2023-06-19T16:14:10.632Z,9.13
2023-06-19T16:16:38.064Z,10.05
2023-06-19T16:19:05.298Z,9.05
2023-06-19T16:21:32.605Z,8.60
2023-06-19T16:24:00.146Z,8.55
2023-06-19T16:26:29.498Z,9.23
2023-06-19T16:28:56.660Z,9.00
2023-06-19T16:31:23.909Z,9.30
2023-06-19T16:33:52.470Z,8.30
2023-06-19T16:36:21.170Z,9.82
2023-06-19T16:41:19.200Z,6.15
2023-06-19T16:43:47.909Z,9.93
2023-06-19T16:46:15.173Z,7.80
2023-06-19T16:48:42.513Z,8.13
2023-06-19T16:51:09.794Z,8.60
2023-06-19T16:53:36.971Z,9.45
2023-06-19T16:56:04.180Z,9.02
2023-06-19T16:58:31.620Z,8.45
2023-06-19T17:00:58.916Z,6.85
2023-06-19T17:03:26.251Z,9.25
2023-06-19T17:05:53.671Z,6.72
2023-06-19T17:08:20.882Z,7.63
2023-06-19T17:10:48.051Z,8.38
2023-06-19T17:13:15.294Z,7.45
2023-06-19T17:15:42.456Z,7.30
2023-06-19T17:18:10.322Z,7.60
2023-06-19T17:20:37.631Z,10.70
2023-06-19T17:23:04.861Z,8.05
2023-06-19T17:25:32.665Z,6.47
2023-06-19T17:27:59.988Z,7.78
2023-06-19T17:30:28.093Z,8.05
2023-06-19T17:32:55.449Z,9.15
2023-06-19T17:35:24.507Z,7.88
2023-06-19T17:37:52.323Z,8.27
2023-06-19T17:40:19.658Z,6.93
2023-06-19T17:42:46.913Z,6.43
2023-06-19T17:45:14.182Z,7.85
2023-06-19T17:47:41.570Z,7.70
2023-06-19T17:50:09.268Z,6.97
2023-06-19T17:52:36.563Z,7.43
2023-06-19T17:55:03.956Z,8.75
2023-06-19T17:57:31.402Z,8.60
2023-06-19T17:59:58.581Z,8.13
2023-06-19T18:02:26.557Z,6.75
2023-06-19T18:04:53.992Z,6.82
2023-06-19T18:07:21.146Z,6.40
2023-06-19T18:09:48.642Z,8.40
2023-06-19T18:12:16.792Z,7.57
2023-06-19T18:14:44.985Z,7.65
2023-06-19T18:17:13.227Z,8.55
2023-06-19T18:19:40.732Z,8.18
2023-06-19T18:22:08.036Z,7.22
2023-06-19T18:24:35.398Z,8.20
2023-06-19T18:27:02.671Z,8.27
2023-06-19T18:29:31.847Z,8.23
2023-06-19T18:31:59.218Z,7.90
2023-06-19T18:34:26.479Z,7.40
2023-06-19T18:36:53.932Z,8.20
2023-06-19T18:39:21.160Z,7.63
2023-06-19T18:41:48.460Z,9.48
2023-06-19T18:44:15.688Z,7.35
2023-06-19T18:46:43.058Z,7.32
2023-06-19T18:49:10.257Z,7.60
2023-06-19T18:51:37.459Z,9.13
2023-06-19T18:54:04.748Z,7.75
2023-06-19T18:56:31.999Z,9.90
2023-06-19T18:58:59.366Z,9.32
2023-06-19T19:01:26.631Z,7.07
2023-06-19T19:03:54.110Z,9.57
2023-06-19T19:06:21.293Z,7.28
2023-06-19T19:08:49.259Z,9.40
2023-06-19T19:11:16.444Z,7.70
2023-06-19T19:13:45.329Z,8.23
2023-06-19T19:16:12.600Z,9.60
2023-06-19T19:18:40.038Z,8.18
2023-06-19T19:21:07.352Z,10.45
2023-06-19T19:23:34.532Z,7.32
2023-06-19T19:26:01.871Z,8.82
2023-06-19T19:28:29.147Z,8.15
2023-06-19T19:30:56.332Z,9.00
2023-06-19T19:33:23.675Z,10.18
2023-06-19T19:35:50.869Z,9.10
2023-06-19T19:38:20.773Z,9.25
2023-06-19T19:40:48.588Z,7.90
2023-06-19T19:43:15.768Z,11.32
2023-06-19T19:45:43.060Z,13.73
2023-06-19T19:48:10.434Z,9.90
2023-06-19T19:50:37.592Z,9.20
2023-06-19T19:53:04.745Z,6.88
2023-06-19T19:55:31.879Z,7.85
2023-06-19T19:58:02.095Z,11.77
2023-06-19T20:00:29.780Z,13.50
2023-06-19T20:02:57.082Z,12.45
2023-06-19T20:05:24.380Z,9.07
2023-06-19T20:07:51.559Z,10.48
2023-06-19T20:10:19.067Z,9.38
2023-06-19T20:12:46.169Z,7.60
2023-06-19T20:15:13.309Z,10.45
2023-06-19T20:17:40.547Z,8.23
2023-06-19T20:20:08.587Z,7.75
2023-06-19T20:22:35.770Z,11.38
2023-06-19T20:25:03.138Z,9.00
2023-06-19T20:27:30.445Z,6.90
2023-06-19T20:29:57.677Z,8.93
2023-06-19T20:32:25.092Z,9.48
2023-06-19T20:34:53.255Z,15.15
2023-06-19T20:37:20.442Z,9.30
2023-06-19T20:39:47.727Z,10.32
2023-06-19T20:42:15.739Z,7.97
2023-06-19T20:44:43.085Z,9.25
2023-06-19T20:47:10.315Z,7.32
2023-06-19T20:49:37.534Z,9.27
2023-06-19T20:52:04.820Z,9.57
2023-06-19T20:54:32.026Z,8.43
2023-06-19T20:56:59.187Z,7.95
2023-06-19T20:59:26.415Z,8.88
2023-06-19T21:01:57.372Z,8.32
2023-06-19T21:04:25.417Z,9.32
2023-06-19T21:06:52.714Z,10.73
2023-06-19T21:09:19.900Z,10.80
2023-06-19T21:11:47.709Z,10.98
2023-06-19T21:14:15.271Z,9.88
2023-06-19T21:16:42.758Z,9.70
2023-06-19T21:19:09.985Z,8.88
2023-06-19T21:21:37.203Z,11.70
2023-06-19T21:24:04.489Z,9.68
2023-06-19T21:26:31.892Z,9.07
2023-06-19T21:28:59.063Z,9.50
2023-06-19T21:31:26.263Z,9.70
2023-06-19T21:33:53.568Z,10.60
2023-06-19T21:36:20.804Z,7.82
2023-06-19T21:38:48.285Z,9.70
2023-06-19T21:41:15.509Z,11.27
2023-06-19T21:43:42.691Z,10.95
2023-06-19T21:46:09.901Z,10.65
2023-06-19T21:48:37.182Z,9.32
2023-06-19T21:51:04.402Z,17.75
2023-06-19T21:53:31.639Z,11.07
2023-06-19T21:55:59.483Z,11.52
2023-06-19T21:58:26.815Z,9.82
2023-06-19T22:00:54.102Z,11.52
2023-06-19T22:03:21.515Z,9.95
2023-06-19T22:05:48.800Z,13.30
2023-06-19T22:08:16.023Z,10.65
2023-06-19T22:10:43.241Z,8.60
2023-06-19T22:13:11.678Z,11.75
2023-06-19T22:15:39.093Z,9.23
2023-06-19T22:18:06.389Z,10.50
2023-06-19T22:20:33.680Z,10.80
2023-06-19T22:23:00.976Z,9.20
2023-06-19T22:25:28.739Z,9.70
2023-06-19T22:27:56.913Z,9.40
2023-06-19T22:30:24.710Z,9.93
2023-06-19T22:32:52.411Z,9.70
2023-06-19T22:35:19.705Z,8.95
2023-06-19T22:37:47.684Z,10.75
2023-06-19T22:40:14.950Z,12.40
2023-06-19T22:42:42.874Z,10.85
2023-06-19T22:45:10.862Z,9.27
2023-06-19T22:47:39.301Z,8.98
2023-06-19T22:52:34.594Z,10.07
2023-06-19T22:55:02.185Z,11.32
2023-06-19T22:57:29.664Z,10.73
2023-06-19T22:59:56.869Z,8.65
2023-06-19T23:02:24.148Z,8.25
2023-06-19T23:04:51.372Z,10.40
2023-06-19T23:07:18.562Z,7.22
2023-06-19T23:09:46.276Z,9.38
2023-06-19T23:12:13.487Z,10.43
2023-06-19T23:14:40.657Z,11.52
2023-06-19T23:17:08.016Z,8.50
2023-06-19T23:19:35.250Z,9.75
2023-06-19T23:22:03.378Z,8.90
2023-06-19T23:24:30.589Z,8.85
2023-06-19T23:26:57.815Z,9.38
2023-06-19T23:29:25.084Z,9.98
2023-06-19T23:31:52.270Z,9.38
2023-06-19T23:34:19.484Z,7.82
2023-06-19T23:36:46.610Z,7.95
2023-06-19T23:39:13.765Z,9.35
2023-06-19T23:41:40.937Z,9.23
2023-06-19T23:44:08.229Z,8.32
2023-06-19T23:46:35.672Z,10.63
2023-06-19T23:49:02.817Z,8.40
2023-06-19T23:51:29.987Z,9.77
2023-06-19T23:53:57.326Z,11.98
2023-06-19T23:56:24.500Z,9.95
2023-06-19T23:58:51.721Z,11.07
